Aeroporto :
LOGIN :

Iscrizione | Disclaimer

   EN    FR    IT 

 










Sommario :    VFR   VFR Marginale   IFR   IFR Intensivo   IFR Molto Intensivo
Visibilità : 
Base nubi : 
>= 8 km
>= 3000ft
5 / 8 km
1000 / 3000 ft
1500m / 5 km
500 / 1000 ft
800 / 1500m
200 / 500 ft
< 800m
< 200 ft
Simboli :   Temporali  Nebbia  Neve Forte  Precipitazioni Forti  Vento > 20 kt
SIGMETs :   Varie  Temporali  Ghiacco  Turbolenza  Onda orograficha  Ceneri Vulcaniche






- Altitudine del aeroporto : 106 ft
- Codice IATA : NRN


EDLV - Weeze

ULTIMO METAR :
  • 021350Z 26013KT 9000 -RA OVC014 08/06 Q1023

METARs OBSOLETI :
  • 021320Z 26012KT 7000 -DZ BKN014 OVC019 08/06 Q1023
  • 021250Z 26011KT 9999 -RA OVC019 09/06 Q1024
  • 021220Z 26012KT 9999 OVC018 09/06 Q1024
  • 021150Z 27012KT 9999 OVC017 09/06 Q1024
  • 021120Z 27012KT 9999 -RA OVC017 09/06 Q1024

TAF TAF EDLV
Valido dal 02 a 12 ore il 03 a 12 ore UTC


021100Z 0212/0312 26012KT 9999 BKN020
TEMPO 0212/0219 BKN012
PROB30
TEMPO 0212/0217 3500 RADZ BKN008
PROB30
TEMPO 0217/0304 3500 -DZ BKN008
PROB30
TEMPO 0304/0312 BKN008
TEMPO 0308/0312 27015G25KT
PROB30
TEMPO 0309/0312 3500 DZ



MetMap, La meteo Aeronautica in un colpo d'occhio ! - Copyright ORBIFLY Dicembre 2007 - Disclaimer

ORBIFLY MET'MAP TEAM :

Programmazione e sviluppo : Alexandra Zaïnal
Concezione : Baudouin d'Aumeries
Supporto tecnico e logistico : Manuel Goepfert
Aiuto : Marc-Olivier Méhu
Aiuto per la traduzione : Arnaldo La Scala




FONTI E CREDITI :

   NOAA